createdAt,value
2023-03-19T00:04:05.285Z,25.78
2023-03-19T00:09:10.454Z,25.51
2023-03-19T00:14:17.254Z,25.22
2023-03-19T00:19:21.999Z,25.12
2023-03-19T00:24:27.515Z,25.02
2023-03-19T00:29:33.205Z,25.16
2023-03-19T00:34:38.805Z,25.57
2023-03-19T00:39:44.792Z,24.98
2023-03-19T00:44:52.168Z,25.11
2023-03-19T00:49:57.702Z,24.75
2023-03-19T00:55:03.359Z,25.02
2023-03-19T01:00:10.183Z,25.84
2023-03-19T01:05:17.145Z,25.36
2023-03-19T01:10:24.593Z,25.02
2023-03-19T01:15:29.916Z,25.24
2023-03-19T01:20:35.935Z,25.14
2023-03-19T01:25:42.239Z,26.54
2023-03-19T01:30:49.704Z,26.37
2023-03-19T01:36:16.677Z,25.58
2023-03-19T01:41:43.134Z,25.61
2023-03-19T01:47:34.537Z,25.79
2023-03-19T01:53:01.095Z,25.67
2023-03-19T01:58:20.590Z,25.35
2023-03-19T02:03:44.383Z,25.45
2023-03-19T02:09:01.092Z,26.02
2023-03-19T02:14:06.531Z,25.61
2023-03-19T02:19:20.091Z,25.25
2023-03-19T02:24:37.701Z,25.65
2023-03-19T02:29:49.416Z,24.99
2023-03-19T02:34:55.009Z,25.23
2023-03-19T02:40:32.603Z,24.96
2023-03-19T02:45:38.037Z,25.10
2023-03-19T02:50:43.462Z,25.48
2023-03-19T02:55:48.950Z,25.04
2023-03-19T03:00:55.081Z,25.39
2023-03-19T03:06:01.790Z,24.92
2023-03-19T03:11:07.779Z,25.14
2023-03-19T03:16:14.030Z,24.67
2023-03-19T03:21:22.659Z,24.69
2023-03-19T03:26:28.467Z,24.97
2023-03-19T03:31:34.822Z,24.84
2023-03-19T03:36:40.306Z,25.05
2023-03-19T03:41:46.586Z,24.51
2023-03-19T03:46:53.166Z,24.96
2023-03-19T03:51:58.622Z,25.30
2023-03-19T03:57:05.040Z,25.00
2023-03-19T04:02:10.727Z,25.47
2023-03-19T04:07:16.207Z,24.36
2023-03-19T04:12:29.755Z,24.87
2023-03-19T04:17:36.177Z,24.56
2023-03-19T04:22:41.518Z,25.12
2023-03-19T04:27:48.296Z,25.01
2023-03-19T04:32:53.579Z,24.93
2023-03-19T04:37:58.995Z,25.00
2023-03-19T04:43:04.421Z,24.95
2023-03-19T04:48:11.078Z,24.89
2023-03-19T04:53:18.777Z,25.31
2023-03-19T04:58:25.362Z,26.79
2023-03-19T05:03:37.485Z,26.33
2023-03-19T05:08:42.908Z,26.43
2023-03-19T05:13:48.381Z,26.17
2023-03-19T05:18:54.396Z,26.81
2023-03-19T05:24:00.164Z,25.91
2023-03-19T05:29:12.134Z,26.11
2023-03-19T05:34:31.209Z,26.38
2023-03-19T05:39:38.208Z,26.24
2023-03-19T05:44:46.562Z,26.46
2023-03-19T05:50:09.249Z,26.26
2023-03-19T05:55:14.841Z,26.77
2023-03-19T06:00:29.129Z,27.67
2023-03-19T06:05:34.665Z,27.20
2023-03-19T06:10:58.211Z,27.78
2023-03-19T06:16:04.800Z,27.33
2023-03-19T06:21:18.322Z,28.04
2023-03-19T06:26:25.118Z,28.75
2023-03-19T06:31:33.062Z,27.63
2023-03-19T06:36:43.359Z,28.06
2023-03-19T06:41:51.844Z,28.63
2023-03-19T06:47:02.117Z,29.39
2023-03-19T06:52:08.967Z,29.73
2023-03-19T06:57:14.102Z,28.31
2023-03-19T07:02:19.813Z,29.21
2023-03-19T07:07:25.575Z,29.02
2023-03-19T07:12:30.728Z,29.28
2023-03-19T07:17:36.017Z,28.67
2023-03-19T07:22:41.197Z,28.70
2023-03-19T07:27:47.668Z,29.21
2023-03-19T07:32:53.836Z,29.96
2023-03-19T07:37:59.553Z,30.29
2023-03-19T07:43:05.424Z,29.60
2023-03-19T07:48:10.236Z,30.29
2023-03-19T07:53:15.585Z,29.89
2023-03-19T07:58:21.790Z,30.82
2023-03-19T08:03:27.414Z,29.76
2023-03-19T08:08:33.829Z,28.81
2023-03-19T08:13:39.441Z,29.10
2023-03-19T08:18:44.687Z,30.07
2023-03-19T08:23:49.942Z,28.94
2023-03-19T08:28:55.258Z,29.19
2023-03-19T08:34:05.385Z,29.26
2023-03-19T08:39:10.688Z,28.59
2023-03-19T08:44:16.108Z,29.05
2023-03-19T08:49:21.389Z,29.40
2023-03-19T08:54:27.618Z,28.57
2023-03-19T08:59:34.289Z,30.01
2023-03-19T09:04:42.475Z,29.85
2023-03-19T09:09:48.223Z,29.65
2023-03-19T09:14:53.529Z,30.03
2023-03-19T09:19:59.144Z,30.05
2023-03-19T09:25:04.916Z,29.84
2023-03-19T09:30:14.121Z,29.84
2023-03-19T09:35:19.755Z,29.47
2023-03-19T09:40:35.546Z,28.69
2023-03-19T09:45:41.095Z,28.83
2023-03-19T09:50:47.567Z,29.11
2023-03-19T09:55:55.466Z,29.13
2023-03-19T10:01:02.294Z,30.16
2023-03-19T10:06:28.907Z,29.38
2023-03-19T10:11:46.212Z,29.71
2023-03-19T10:16:55.257Z,30.05
2023-03-19T10:22:10.992Z,31.75
2023-03-19T10:27:24.935Z,30.95
2023-03-19T10:32:45.070Z,31.55
2023-03-19T10:37:56.478Z,33.68
2023-03-19T10:43:17.178Z,31.89
2023-03-19T10:48:29.817Z,32.48
2023-03-19T10:53:39.126Z,33.15
2023-03-19T10:59:02.658Z,31.91
2023-03-19T11:04:23.202Z,31.93
2023-03-19T11:09:51.472Z,31.17
2023-03-19T11:15:00.944Z,32.83
2023-03-19T11:20:36.531Z,32.11
2023-03-19T11:25:42.380Z,31.45
2023-03-19T11:31:06.735Z,33.74
2023-03-19T11:36:22.634Z,33.55
2023-03-19T11:41:57.508Z,32.75
2023-03-19T11:47:36.501Z,32.54
2023-03-19T11:53:07.560Z,33.06
2023-03-19T11:58:46.254Z,35.35
2023-03-19T12:04:29.289Z,33.51
2023-03-19T12:10:00.718Z,33.96
2023-03-19T12:15:12.486Z,35.23
2023-03-19T12:20:22.816Z,34.62
2023-03-19T12:25:34.188Z,35.98
2023-03-19T12:30:52.708Z,35.57
2023-03-19T12:36:01.149Z,37.25
2023-03-19T12:41:12.609Z,37.13
2023-03-19T12:46:26.679Z,38.05
2023-03-19T12:51:40.363Z,35.79
2023-03-19T12:57:02.880Z,36.17
2023-03-19T13:02:11.838Z,38.52
2023-03-19T13:07:53.434Z,36.60
2023-03-19T13:13:00.761Z,37.18
2023-03-19T13:18:06.638Z,37.45
2023-03-19T13:23:16.693Z,35.99
2023-03-19T13:29:05.375Z,35.45
2023-03-19T13:34:27.658Z,36.65
2023-03-19T13:39:37.105Z,37.78
2023-03-19T13:44:44.685Z,37.42
2023-03-19T13:50:17.906Z,35.47
2023-03-19T13:55:47.007Z,35.87
2023-03-19T14:01:00.590Z,36.30
2023-03-19T14:06:08.477Z,37.53
2023-03-19T14:11:31.358Z,36.15
2023-03-19T14:16:45.134Z,37.21
2023-03-19T14:22:10.518Z,36.09
2023-03-19T14:27:35.668Z,39.26
2023-03-19T14:32:45.491Z,37.50
2023-03-19T14:37:54.998Z,40.47
2023-03-19T14:43:13.123Z,38.37
2023-03-19T14:49:00.070Z,36.90
2023-03-19T14:54:36.244Z,36.79
2023-03-19T14:59:43.261Z,38.69
2023-03-19T15:04:51.156Z,37.41
2023-03-19T15:09:58.376Z,39.62
2023-03-19T15:15:26.104Z,36.94
2023-03-19T15:20:38.977Z,37.41
2023-03-19T15:25:53.187Z,38.02
2023-03-19T15:31:20.263Z,38.92
2023-03-19T15:36:35.058Z,39.26
2023-03-19T15:41:48.010Z,38.43
2023-03-19T15:46:55.586Z,39.00
2023-03-19T15:52:08.427Z,37.74
2023-03-19T15:57:18.476Z,38.80
2023-03-19T16:02:37.422Z,38.81
2023-03-19T16:07:47.726Z,38.51
2023-03-19T16:12:53.679Z,39.59
2023-03-19T16:18:36.195Z,37.23
2023-03-19T16:24:06.206Z,38.35
2023-03-19T16:29:43.665Z,38.07
2023-03-19T16:34:58.027Z,39.28
2023-03-19T16:40:25.712Z,38.13
2023-03-19T16:45:37.024Z,38.83
2023-03-19T16:50:45.828Z,38.49
2023-03-19T16:55:53.115Z,38.85
2023-03-19T17:01:01.573Z,38.75
2023-03-19T17:06:12.267Z,37.83
2023-03-19T17:11:32.821Z,38.07
2023-03-19T17:16:38.702Z,38.63
2023-03-19T17:21:45.640Z,39.16
2023-03-19T17:26:51.517Z,39.06
2023-03-19T17:32:01.739Z,39.71
2023-03-19T17:37:16.327Z,38.63
2023-03-19T17:42:28.345Z,39.95
2023-03-19T17:47:36.089Z,39.43
2023-03-19T17:52:45.264Z,40.55
2023-03-19T17:57:53.420Z,38.78
2023-03-19T18:03:00.613Z,39.72
2023-03-19T18:08:06.358Z,38.51
2023-03-19T18:13:12.701Z,39.28
2023-03-19T18:18:23.479Z,38.91
2023-03-19T18:23:29.424Z,39.67
2023-03-19T18:28:35.472Z,39.07
2023-03-19T18:33:42.850Z,39.31
2023-03-19T18:38:48.824Z,40.87
2023-03-19T18:43:56.687Z,40.58
2023-03-19T18:49:03.618Z,42.87
2023-03-19T18:54:09.147Z,42.02
2023-03-19T18:59:28.531Z,39.22
2023-03-19T19:04:35.199Z,40.53
2023-03-19T19:09:41.002Z,39.33
2023-03-19T19:14:47.486Z,40.50
2023-03-19T19:19:53.317Z,40.13
2023-03-19T19:24:59.055Z,40.44
2023-03-19T19:30:04.061Z,40.35
2023-03-19T19:35:22.891Z,40.93
2023-03-19T19:40:33.726Z,40.08
2023-03-19T19:45:43.103Z,40.89
2023-03-19T19:50:50.279Z,40.73
2023-03-19T19:55:56.209Z,40.64
2023-03-19T20:01:04.477Z,40.95
2023-03-19T20:06:10.314Z,40.31
2023-03-19T20:11:22.591Z,40.67
2023-03-19T20:16:28.565Z,40.69
2023-03-19T20:21:34.085Z,41.46
2023-03-19T20:26:39.632Z,39.81
2023-03-19T20:31:48.240Z,40.45
2023-03-19T20:36:54.283Z,40.76
2023-03-19T20:41:59.837Z,40.72
2023-03-19T20:47:05.268Z,40.96
2023-03-19T20:52:13.471Z,40.20
2023-03-19T20:57:24.237Z,41.82
2023-03-19T21:02:29.775Z,41.02
2023-03-19T21:07:36.430Z,42.05
2023-03-19T21:12:41.898Z,40.57
2023-03-19T21:17:50.057Z,40.24
2023-03-19T21:23:07.410Z,39.57
2023-03-19T21:28:53.371Z,39.76
2023-03-19T21:34:00.313Z,41.07
2023-03-19T21:39:05.667Z,41.50
2023-03-19T21:44:22.311Z,40.16
2023-03-19T21:49:28.031Z,41.10
2023-03-19T21:54:33.491Z,40.48
2023-03-19T21:59:41.099Z,40.77
2023-03-19T22:04:47.841Z,40.09
2023-03-19T22:09:54.304Z,42.26
2023-03-19T22:15:01.525Z,41.84
2023-03-19T22:20:07.298Z,40.95
2023-03-19T22:25:17.840Z,40.43
2023-03-19T22:30:44.224Z,40.25
2023-03-19T22:35:53.388Z,41.58
2023-03-19T22:40:59.113Z,41.99
2023-03-19T22:46:11.489Z,40.87
2023-03-19T22:51:22.948Z,41.32
2023-03-19T22:56:28.412Z,41.65
2023-03-19T23:01:52.373Z,40.38
2023-03-19T23:06:59.490Z,40.73
2023-03-19T23:12:05.988Z,40.47
2023-03-19T23:17:18.670Z,38.77
2023-03-19T23:22:24.271Z,40.71
2023-03-19T23:27:30.728Z,40.18
2023-03-19T23:32:37.401Z,41.34
2023-03-19T23:37:42.294Z,41.62
2023-03-19T23:42:51.785Z,42.83
2023-03-19T23:48:05.783Z,41.64
2023-03-19T23:53:22.024Z,42.69
2023-03-19T23:58:41.288Z,43.87
